sensor_id;sensor_type;location;lat;lon;timestamp;temperature;humidity
54006;DHT22;39919;38.160;-122.260;2023-08-21T00:01:50;33.10;47.30
54006;DHT22;39919;38.160;-122.260;2023-08-21T00:04:22;33.10;46.40
54006;DHT22;39919;38.160;-122.260;2023-08-21T00:06:51;33.20;47.50
54006;DHT22;39919;38.160;-122.260;2023-08-21T00:09:20;33.30;44.70
54006;DHT22;39919;38.160;-122.260;2023-08-21T00:11:50;33.40;45.30
54006;DHT22;39919;38.160;-122.260;2023-08-21T00:14:22;33.40;45.40
54006;DHT22;39919;38.160;-122.260;2023-08-21T00:16:51;33.40;45.30
54006;DHT22;39919;38.160;-122.260;2023-08-21T00:22:07;33.60;45.30
54006;DHT22;39919;38.160;-122.260;2023-08-21T00:24:36;33.60;46.00
54006;DHT22;39919;38.160;-122.260;2023-08-21T00:27:06;33.70;47.10
54006;DHT22;39919;38.160;-122.260;2023-08-21T00:29:45;33.80;46.90
54006;DHT22;39919;38.160;-122.260;2023-08-21T00:32:15;33.90;47.80
54006;DHT22;39919;38.160;-122.260;2023-08-21T00:34:44;34.00;47.90
54006;DHT22;39919;38.160;-122.260;2023-08-21T00:37:13;34.10;46.70
54006;DHT22;39919;38.160;-122.260;2023-08-21T00:39:42;34.10;47.50
54006;DHT22;39919;38.160;-122.260;2023-08-21T00:42:11;34.20;47.90
54006;DHT22;39919;38.160;-122.260;2023-08-21T00:44:49;34.30;47.20
54006;DHT22;39919;38.160;-122.260;2023-08-21T00:47:22;34.40;46.80
54006;DHT22;39919;38.160;-122.260;2023-08-21T00:49:51;34.40;47.00
54006;DHT22;39919;38.160;-122.260;2023-08-21T00:52:21;34.50;47.30
54006;DHT22;39919;38.160;-122.260;2023-08-21T00:54:50;34.40;47.30
54006;DHT22;39919;38.160;-122.260;2023-08-21T00:57:23;34.50;46.90
54006;DHT22;39919;38.160;-122.260;2023-08-21T00:59:54;34.40;47.00
54006;DHT22;39919;38.160;-122.260;2023-08-21T01:02:24;34.40;46.80
54006;DHT22;39919;38.160;-122.260;2023-08-21T01:04:53;34.40;47.10
54006;DHT22;39919;38.160;-122.260;2023-08-21T01:07:29;34.40;47.20
54006;DHT22;39919;38.160;-122.260;2023-08-21T01:13:18;34.30;47.10
54006;DHT22;39919;38.160;-122.260;2023-08-21T01:16:06;34.30;46.90
54006;DHT22;39919;38.160;-122.260;2023-08-21T01:18:44;34.20;46.40
54006;DHT22;39919;38.160;-122.260;2023-08-21T01:21:14;34.10;46.00
54006;DHT22;39919;38.160;-122.260;2023-08-21T01:23:45;34.10;46.00
54006;DHT22;39919;38.160;-122.260;2023-08-21T01:26:17;34.10;46.30
54006;DHT22;39919;38.160;-122.260;2023-08-21T01:28:50;34.00;46.30
54006;DHT22;39919;38.160;-122.260;2023-08-21T01:31:34;34.00;46.50
54006;DHT22;39919;38.160;-122.260;2023-08-21T01:34:09;33.90;46.40
54006;DHT22;39919;38.160;-122.260;2023-08-21T01:36:41;33.90;46.40
54006;DHT22;39919;38.160;-122.260;2023-08-21T01:39:24;33.80;46.40
54006;DHT22;39919;38.160;-122.260;2023-08-21T01:41:56;33.70;46.50
54006;DHT22;39919;38.160;-122.260;2023-08-21T01:44:31;33.70;46.80
54006;DHT22;39919;38.160;-122.260;2023-08-21T01:47:00;33.60;46.60
54006;DHT22;39919;38.160;-122.260;2023-08-21T01:49:31;33.50;46.70
54006;DHT22;39919;38.160;-122.260;2023-08-21T01:52:05;33.40;46.00
54006;DHT22;39919;38.160;-122.260;2023-08-21T01:54:36;33.30;46.00
54006;DHT22;39919;38.160;-122.260;2023-08-21T01:57:05;33.20;46.40
54006;DHT22;39919;38.160;-122.260;2023-08-21T01:59:34;33.10;46.30
54006;DHT22;39919;38.160;-122.260;2023-08-21T02:02:04;33.00;46.60
54006;DHT22;39919;38.160;-122.260;2023-08-21T02:04:33;33.00;46.90
54006;DHT22;39919;38.160;-122.260;2023-08-21T02:07:04;32.90;46.60
54006;DHT22;39919;38.160;-122.260;2023-08-21T02:09:35;32.80;46.10
54006;DHT22;39919;38.160;-122.260;2023-08-21T02:12:07;32.80;47.20
54006;DHT22;39919;38.160;-122.260;2023-08-21T02:14:36;32.70;47.50
54006;DHT22;39919;38.160;-122.260;2023-08-21T02:17:08;32.60;47.90
54006;DHT22;39919;38.160;-122.260;2023-08-21T02:19:38;32.50;48.20
54006;DHT22;39919;38.160;-122.260;2023-08-21T02:22:07;32.50;47.30
54006;DHT22;39919;38.160;-122.260;2023-08-21T02:24:41;32.40;47.60
54006;DHT22;39919;38.160;-122.260;2023-08-21T02:27:10;32.30;47.70
54006;DHT22;39919;38.160;-122.260;2023-08-21T02:29:41;32.20;46.10
54006;DHT22;39919;38.160;-122.260;2023-08-21T02:32:13;32.10;46.10
54006;DHT22;39919;38.160;-122.260;2023-08-21T02:34:43;32.00;46.60
54006;DHT22;39919;38.160;-122.260;2023-08-21T02:37:12;31.90;47.00
54006;DHT22;39919;38.160;-122.260;2023-08-21T02:39:43;31.80;47.40
54006;DHT22;39919;38.160;-122.260;2023-08-21T02:42:12;31.70;47.50
54006;DHT22;39919;38.160;-122.260;2023-08-21T02:44:44;31.70;47.90
54006;DHT22;39919;38.160;-122.260;2023-08-21T02:47:14;31.60;47.80
54006;DHT22;39919;38.160;-122.260;2023-08-21T02:49:43;31.40;48.00
54006;DHT22;39919;38.160;-122.260;2023-08-21T02:52:12;31.40;48.30
54006;DHT22;39919;38.160;-122.260;2023-08-21T02:54:43;31.30;48.20
54006;DHT22;39919;38.160;-122.260;2023-08-21T02:57:15;31.20;48.20
54006;DHT22;39919;38.160;-122.260;2023-08-21T02:59:44;31.10;48.30
54006;DHT22;39919;38.160;-122.260;2023-08-21T03:02:13;31.00;48.40
54006;DHT22;39919;38.160;-122.260;2023-08-21T03:04:45;30.90;48.20
54006;DHT22;39919;38.160;-122.260;2023-08-21T03:07:16;30.90;48.50
54006;DHT22;39919;38.160;-122.260;2023-08-21T03:09:48;30.80;48.80
54006;DHT22;39919;38.160;-122.260;2023-08-21T03:12:17;30.60;48.70
54006;DHT22;39919;38.160;-122.260;2023-08-21T03:14:47;30.50;48.70
54006;DHT22;39919;38.160;-122.260;2023-08-21T03:17:16;30.50;48.70
54006;DHT22;39919;38.160;-122.260;2023-08-21T03:19:45;30.40;48.50
54006;DHT22;39919;38.160;-122.260;2023-08-21T03:22:15;30.30;48.60
54006;DHT22;39919;38.160;-122.260;2023-08-21T03:25:00;30.20;48.70
54006;DHT22;39919;38.160;-122.260;2023-08-21T03:27:29;30.20;48.80
54006;DHT22;39919;38.160;-122.260;2023-08-21T03:29:59;30.10;48.90
54006;DHT22;39919;38.160;-122.260;2023-08-21T03:32:28;30.00;48.60
54006;DHT22;39919;38.160;-122.260;2023-08-21T03:34:57;29.90;48.30
54006;DHT22;39919;38.160;-122.260;2023-08-21T03:37:26;29.90;48.70
54006;DHT22;39919;38.160;-122.260;2023-08-21T03:39:55;29.80;48.00
54006;DHT22;39919;38.160;-122.260;2023-08-21T03:42:26;29.70;47.80
54006;DHT22;39919;38.160;-122.260;2023-08-21T03:44:55;29.70;48.00
54006;DHT22;39919;38.160;-122.260;2023-08-21T03:47:24;29.60;48.40
54006;DHT22;39919;38.160;-122.260;2023-08-21T03:49:54;29.50;48.50
54006;DHT22;39919;38.160;-122.260;2023-08-21T03:52:23;29.50;49.00
54006;DHT22;39919;38.160;-122.260;2023-08-21T03:54:54;29.40;49.70
54006;DHT22;39919;38.160;-122.260;2023-08-21T03:57:25;29.30;50.30
54006;DHT22;39919;38.160;-122.260;2023-08-21T03:59:54;29.30;51.00
54006;DHT22;39919;38.160;-122.260;2023-08-21T04:02:23;29.20;51.40
54006;DHT22;39919;38.160;-122.260;2023-08-21T04:04:52;29.10;51.60
54006;DHT22;39919;38.160;-122.260;2023-08-21T04:07:24;29.10;52.10
54006;DHT22;39919;38.160;-122.260;2023-08-21T04:09:53;29.00;52.60
54006;DHT22;39919;38.160;-122.260;2023-08-21T04:12:25;29.00;52.50
54006;DHT22;39919;38.160;-122.260;2023-08-21T04:14:56;28.90;52.70
54006;DHT22;39919;38.160;-122.260;2023-08-21T04:17:25;28.80;53.50
54006;DHT22;39919;38.160;-122.260;2023-08-21T04:19:54;28.70;53.50
54006;DHT22;39919;38.160;-122.260;2023-08-21T04:22:24;28.70;53.60
54006;DHT22;39919;38.160;-122.260;2023-08-21T04:24:53;28.60;54.10
54006;DHT22;39919;38.160;-122.260;2023-08-21T04:27:25;28.50;55.80
54006;DHT22;39919;38.160;-122.260;2023-08-21T04:29:56;28.50;56.30
54006;DHT22;39919;38.160;-122.260;2023-08-21T04:32:27;28.40;57.30
54006;DHT22;39919;38.160;-122.260;2023-08-21T04:34:56;28.40;58.20
54006;DHT22;39919;38.160;-122.260;2023-08-21T04:37:26;28.30;58.50
54006;DHT22;39919;38.160;-122.260;2023-08-21T04:39:58;28.20;58.30
54006;DHT22;39919;38.160;-122.260;2023-08-21T04:42:33;28.10;58.50
54006;DHT22;39919;38.160;-122.260;2023-08-21T04:45:09;28.00;58.20
54006;DHT22;39919;38.160;-122.260;2023-08-21T04:47:42;27.90;58.30
54006;DHT22;39919;38.160;-122.260;2023-08-21T04:50:13;27.80;58.60
54006;DHT22;39919;38.160;-122.260;2023-08-21T04:52:42;27.80;58.40
54006;DHT22;39919;38.160;-122.260;2023-08-21T04:55:12;27.70;58.70
54006;DHT22;39919;38.160;-122.260;2023-08-21T04:57:41;27.60;58.90
54006;DHT22;39919;38.160;-122.260;2023-08-21T05:00:13;27.60;59.00
54006;DHT22;39919;38.160;-122.260;2023-08-21T05:02:45;27.50;58.80
54006;DHT22;39919;38.160;-122.260;2023-08-21T05:05:15;27.40;58.60
54006;DHT22;39919;38.160;-122.260;2023-08-21T05:07:44;27.30;58.50
54006;DHT22;39919;38.160;-122.260;2023-08-21T05:10:13;27.30;59.00
54006;DHT22;39919;38.160;-122.260;2023-08-21T05:12:42;27.20;59.20
54006;DHT22;39919;38.160;-122.260;2023-08-21T05:15:13;27.20;59.40
54006;DHT22;39919;38.160;-122.260;2023-08-21T05:17:43;27.10;59.50
54006;DHT22;39919;38.160;-122.260;2023-08-21T05:20:12;27.00;59.30
54006;DHT22;39919;38.160;-122.260;2023-08-21T05:22:42;27.00;59.40
54006;DHT22;39919;38.160;-122.260;2023-08-21T05:25:11;26.90;59.40
54006;DHT22;39919;38.160;-122.260;2023-08-21T05:27:40;26.80;59.40
54006;DHT22;39919;38.160;-122.260;2023-08-21T05:30:12;26.80;59.30
54006;DHT22;39919;38.160;-122.260;2023-08-21T05:32:42;26.70;59.70
54006;DHT22;39919;38.160;-122.260;2023-08-21T05:35:11;26.70;59.40
54006;DHT22;39919;38.160;-122.260;2023-08-21T05:37:40;26.60;59.60
54006;DHT22;39919;38.160;-122.260;2023-08-21T05:40:10;26.60;59.40
54006;DHT22;39919;38.160;-122.260;2023-08-21T05:42:39;26.50;59.50
54006;DHT22;39919;38.160;-122.260;2023-08-21T05:45:08;26.40;59.50
54006;DHT22;39919;38.160;-122.260;2023-08-21T05:47:39;26.40;59.50
54006;DHT22;39919;38.160;-122.260;2023-08-21T05:50:09;26.30;59.50
54006;DHT22;39919;38.160;-122.260;2023-08-21T05:52:38;26.30;60.10
54006;DHT22;39919;38.160;-122.260;2023-08-21T05:55:08;26.30;60.20
54006;DHT22;39919;38.160;-122.260;2023-08-21T05:57:37;26.20;60.30
54006;DHT22;39919;38.160;-122.260;2023-08-21T06:00:07;26.20;60.80
54006;DHT22;39919;38.160;-122.260;2023-08-21T06:02:38;26.10;60.90
54006;DHT22;39919;38.160;-122.260;2023-08-21T06:05:09;26.10;61.00
54006;DHT22;39919;38.160;-122.260;2023-08-21T06:07:38;26.00;60.70
54006;DHT22;39919;38.160;-122.260;2023-08-21T06:10:09;26.00;60.50
54006;DHT22;39919;38.160;-122.260;2023-08-21T06:12:39;25.90;60.50
54006;DHT22;39919;38.160;-122.260;2023-08-21T06:15:10;25.90;60.70
54006;DHT22;39919;38.160;-122.260;2023-08-21T06:17:41;25.80;60.60
54006;DHT22;39919;38.160;-122.260;2023-08-21T06:20:13;25.80;60.60
54006;DHT22;39919;38.160;-122.260;2023-08-21T06:22:48;25.70;60.50
54006;DHT22;39919;38.160;-122.260;2023-08-21T06:25:17;25.70;61.00
54006;DHT22;39919;38.160;-122.260;2023-08-21T06:27:46;25.60;61.00
54006;DHT22;39919;38.160;-122.260;2023-08-21T06:30:28;25.60;61.20
54006;DHT22;39919;38.160;-122.260;2023-08-21T06:32:59;25.60;61.70
54006;DHT22;39919;38.160;-122.260;2023-08-21T06:35:31;25.60;61.90
54006;DHT22;39919;38.160;-122.260;2023-08-21T06:38:00;25.50;62.20
54006;DHT22;39919;38.160;-122.260;2023-08-21T06:40:29;25.40;61.70
54006;DHT22;39919;38.160;-122.260;2023-08-21T06:43:00;25.40;61.50
54006;DHT22;39919;38.160;-122.260;2023-08-21T06:45:32;25.40;61.80
54006;DHT22;39919;38.160;-122.260;2023-08-21T06:48:04;25.30;61.70
54006;DHT22;39919;38.160;-122.260;2023-08-21T06:50:33;25.30;61.30
54006;DHT22;39919;38.160;-122.260;2023-08-21T06:53:02;25.30;61.00
54006;DHT22;39919;38.160;-122.260;2023-08-21T06:55:32;25.30;61.00
54006;DHT22;39919;38.160;-122.260;2023-08-21T06:58:01;25.20;60.90
54006;DHT22;39919;38.160;-122.260;2023-08-21T07:00:30;25.20;60.60
54006;DHT22;39919;38.160;-122.260;2023-08-21T07:02:59;25.20;60.70
54006;DHT22;39919;38.160;-122.260;2023-08-21T07:05:31;25.10;60.50
54006;DHT22;39919;38.160;-122.260;2023-08-21T07:08:00;25.10;60.20
54006;DHT22;39919;38.160;-122.260;2023-08-21T07:10:30;25.10;60.20
54006;DHT22;39919;38.160;-122.260;2023-08-21T07:13:02;25.10;60.00
54006;DHT22;39919;38.160;-122.260;2023-08-21T07:15:31;25.10;59.90
54006;DHT22;39919;38.160;-122.260;2023-08-21T07:18:00;25.00;59.60
54006;DHT22;39919;38.160;-122.260;2023-08-21T07:20:31;25.00;59.50
54006;DHT22;39919;38.160;-122.260;2023-08-21T07:23:00;25.00;59.60
54006;DHT22;39919;38.160;-122.260;2023-08-21T07:25:30;25.00;59.40
54006;DHT22;39919;38.160;-122.260;2023-08-21T07:27:59;24.90;59.90
54006;DHT22;39919;38.160;-122.260;2023-08-21T07:30:28;24.90;59.50
54006;DHT22;39919;38.160;-122.260;2023-08-21T07:32:57;24.90;59.50
54006;DHT22;39919;38.160;-122.260;2023-08-21T07:35:26;24.90;59.30
54006;DHT22;39919;38.160;-122.260;2023-08-21T07:37:57;24.90;59.20
54006;DHT22;39919;38.160;-122.260;2023-08-21T07:40:26;24.80;59.40
54006;DHT22;39919;38.160;-122.260;2023-08-21T07:42:55;24.80;59.20
54006;DHT22;39919;38.160;-122.260;2023-08-21T07:45:25;24.80;59.20
54006;DHT22;39919;38.160;-122.260;2023-08-21T07:47:54;24.80;59.30
54006;DHT22;39919;38.160;-122.260;2023-08-21T07:50:23;24.80;59.40
54006;DHT22;39919;38.160;-122.260;2023-08-21T07:52:52;24.80;59.30
54006;DHT22;39919;38.160;-122.260;2023-08-21T07:55:23;24.70;59.20
54006;DHT22;39919;38.160;-122.260;2023-08-21T07:57:52;24.70;59.10
54006;DHT22;39919;38.160;-122.260;2023-08-21T08:00:21;24.70;59.10
54006;DHT22;39919;38.160;-122.260;2023-08-21T08:02:51;24.70;59.20
54006;DHT22;39919;38.160;-122.260;2023-08-21T08:05:20;24.70;59.80
54006;DHT22;39919;38.160;-122.260;2023-08-21T08:07:49;24.70;59.80
54006;DHT22;39919;38.160;-122.260;2023-08-21T08:10:18;24.60;59.80
54006;DHT22;39919;38.160;-122.260;2023-08-21T08:12:49;24.60;60.20
54006;DHT22;39919;38.160;-122.260;2023-08-21T08:15:18;24.60;60.30
54006;DHT22;39919;38.160;-122.260;2023-08-21T08:17:47;24.50;59.90
54006;DHT22;39919;38.160;-122.260;2023-08-21T08:20:19;24.50;60.10
54006;DHT22;39919;38.160;-122.260;2023-08-21T08:22:48;24.50;60.50
54006;DHT22;39919;38.160;-122.260;2023-08-21T08:25:19;24.40;60.90
54006;DHT22;39919;38.160;-122.260;2023-08-21T08:27:51;24.40;61.30
54006;DHT22;39919;38.160;-122.260;2023-08-21T08:30:20;24.40;61.80
54006;DHT22;39919;38.160;-122.260;2023-08-21T08:32:50;24.40;62.10
54006;DHT22;39919;38.160;-122.260;2023-08-21T08:35:20;24.30;62.70
54006;DHT22;39919;38.160;-122.260;2023-08-21T08:37:49;24.30;62.80
54006;DHT22;39919;38.160;-122.260;2023-08-21T08:40:18;24.30;63.20
54006;DHT22;39919;38.160;-122.260;2023-08-21T08:42:49;24.30;63.60
54006;DHT22;39919;38.160;-122.260;2023-08-21T08:45:24;24.30;63.70
54006;DHT22;39919;38.160;-122.260;2023-08-21T08:47:58;24.30;64.10
54006;DHT22;39919;38.160;-122.260;2023-08-21T08:50:32;24.20;64.30
54006;DHT22;39919;38.160;-122.260;2023-08-21T08:53:02;24.20;64.50
54006;DHT22;39919;38.160;-122.260;2023-08-21T08:55:31;24.20;64.80
54006;DHT22;39919;38.160;-122.260;2023-08-21T08:58:02;24.10;64.90
54006;DHT22;39919;38.160;-122.260;2023-08-21T09:00:32;24.10;65.00
54006;DHT22;39919;38.160;-122.260;2023-08-21T09:03:04;24.00;65.10
54006;DHT22;39919;38.160;-122.260;2023-08-21T09:05:34;24.00;65.30
54006;DHT22;39919;38.160;-122.260;2023-08-21T09:08:09;23.90;65.30
54006;DHT22;39919;38.160;-122.260;2023-08-21T09:10:39;23.90;65.60
54006;DHT22;39919;38.160;-122.260;2023-08-21T09:13:17;23.80;66.00
54006;DHT22;39919;38.160;-122.260;2023-08-21T09:15:47;23.80;67.80
54006;DHT22;39919;38.160;-122.260;2023-08-21T09:18:16;23.70;66.90
54006;DHT22;39919;38.160;-122.260;2023-08-21T09:20:45;23.60;67.40
54006;DHT22;39919;38.160;-122.260;2023-08-21T09:23:15;23.50;67.70
54006;DHT22;39919;38.160;-122.260;2023-08-21T09:25:46;23.50;68.40
54006;DHT22;39919;38.160;-122.260;2023-08-21T09:28:23;23.40;68.00
54006;DHT22;39919;38.160;-122.260;2023-08-21T09:30:53;23.30;68.80
54006;DHT22;39919;38.160;-122.260;2023-08-21T09:33:25;23.20;69.70
54006;DHT22;39919;38.160;-122.260;2023-08-21T09:35:55;23.20;70.10
54006;DHT22;39919;38.160;-122.260;2023-08-21T09:38:27;23.10;69.70
54006;DHT22;39919;38.160;-122.260;2023-08-21T09:40:59;23.00;70.00
54006;DHT22;39919;38.160;-122.260;2023-08-21T09:43:31;23.00;69.60
54006;DHT22;39919;38.160;-122.260;2023-08-21T09:46:00;22.90;70.10
54006;DHT22;39919;38.160;-122.260;2023-08-21T09:48:31;22.80;71.10
54006;DHT22;39919;38.160;-122.260;2023-08-21T09:51:02;22.80;71.60
54006;DHT22;39919;38.160;-122.260;2023-08-21T09:53:34;22.70;70.70
54006;DHT22;39919;38.160;-122.260;2023-08-21T09:56:04;22.70;71.00
54006;DHT22;39919;38.160;-122.260;2023-08-21T09:58:36;22.60;71.40
54006;DHT22;39919;38.160;-122.260;2023-08-21T10:01:07;22.50;70.70
54006;DHT22;39919;38.160;-122.260;2023-08-21T10:03:41;22.50;71.10
54006;DHT22;39919;38.160;-122.260;2023-08-21T10:06:16;22.40;70.70
54006;DHT22;39919;38.160;-122.260;2023-08-21T10:08:47;22.40;72.20
54006;DHT22;39919;38.160;-122.260;2023-08-21T10:11:20;22.30;72.60
54006;DHT22;39919;38.160;-122.260;2023-08-21T10:13:52;22.30;71.40
54006;DHT22;39919;38.160;-122.260;2023-08-21T10:16:21;22.20;71.30
54006;DHT22;39919;38.160;-122.260;2023-08-21T10:18:52;22.20;70.90
54006;DHT22;39919;38.160;-122.260;2023-08-21T10:21:22;22.10;70.50
54006;DHT22;39919;38.160;-122.260;2023-08-21T10:23:54;22.10;70.40
54006;DHT22;39919;38.160;-122.260;2023-08-21T10:26:26;22.00;70.30
54006;DHT22;39919;38.160;-122.260;2023-08-21T10:29:00;22.00;70.40
54006;DHT22;39919;38.160;-122.260;2023-08-21T10:31:34;22.00;70.30
54006;DHT22;39919;38.160;-122.260;2023-08-21T10:34:06;22.00;70.40
54006;DHT22;39919;38.160;-122.260;2023-08-21T10:37:08;21.90;70.60
54006;DHT22;39919;38.160;-122.260;2023-08-21T10:39:55;21.90;70.80
54006;DHT22;39919;38.160;-122.260;2023-08-21T10:42:40;21.90;70.40
54006;DHT22;39919;38.160;-122.260;2023-08-21T10:45:14;21.90;70.90
54006;DHT22;39919;38.160;-122.260;2023-08-21T10:47:46;21.80;71.30
54006;DHT22;39919;38.160;-122.260;2023-08-21T10:50:17;21.80;70.90
54006;DHT22;39919;38.160;-122.260;2023-08-21T10:52:46;21.80;72.50
54006;DHT22;39919;38.160;-122.260;2023-08-21T10:55:16;21.80;73.60
54006;DHT22;39919;38.160;-122.260;2023-08-21T10:57:50;21.80;73.60
54006;DHT22;39919;38.160;-122.260;2023-08-21T11:00:22;21.80;74.80
54006;DHT22;39919;38.160;-122.260;2023-08-21T11:02:54;21.70;73.30
54006;DHT22;39919;38.160;-122.260;2023-08-21T11:05:25;21.70;73.90
54006;DHT22;39919;38.160;-122.260;2023-08-21T11:07:54;21.70;73.90
54006;DHT22;39919;38.160;-122.260;2023-08-21T11:10:24;21.70;73.90
54006;DHT22;39919;38.160;-122.260;2023-08-21T11:12:56;21.70;74.80
54006;DHT22;39919;38.160;-122.260;2023-08-21T11:15:28;21.70;75.00
54006;DHT22;39919;38.160;-122.260;2023-08-21T11:17:59;21.70;75.50
54006;DHT22;39919;38.160;-122.260;2023-08-21T11:20:29;21.60;75.80
54006;DHT22;39919;38.160;-122.260;2023-08-21T11:22:59;21.60;76.00
54006;DHT22;39919;38.160;-122.260;2023-08-21T11:25:29;21.50;76.20
54006;DHT22;39919;38.160;-122.260;2023-08-21T11:27:58;21.40;75.90
54006;DHT22;39919;38.160;-122.260;2023-08-21T11:30:31;21.40;76.30
54006;DHT22;39919;38.160;-122.260;2023-08-21T11:33:08;21.30;76.20
54006;DHT22;39919;38.160;-122.260;2023-08-21T11:35:38;21.30;76.40
54006;DHT22;39919;38.160;-122.260;2023-08-21T11:38:15;21.20;77.00
54006;DHT22;39919;38.160;-122.260;2023-08-21T11:40:52;21.10;76.60
54006;DHT22;39919;38.160;-122.260;2023-08-21T11:43:22;21.00;77.00
54006;DHT22;39919;38.160;-122.260;2023-08-21T11:45:54;20.90;77.10
54006;DHT22;39919;38.160;-122.260;2023-08-21T11:48:24;20.90;77.10
54006;DHT22;39919;38.160;-122.260;2023-08-21T11:50:53;20.70;77.00
54006;DHT22;39919;38.160;-122.260;2023-08-21T11:53:37;20.70;78.00
54006;DHT22;39919;38.160;-122.260;2023-08-21T11:56:12;20.60;78.30
54006;DHT22;39919;38.160;-122.260;2023-08-21T11:58:43;20.50;78.00
54006;DHT22;39919;38.160;-122.260;2023-08-21T12:01:16;20.50;78.40
54006;DHT22;39919;38.160;-122.260;2023-08-21T12:03:46;20.40;78.80
54006;DHT22;39919;38.160;-122.260;2023-08-21T12:06:21;20.30;78.40
54006;DHT22;39919;38.160;-122.260;2023-08-21T12:08:51;20.20;79.00
54006;DHT22;39919;38.160;-122.260;2023-08-21T12:11:21;20.20;79.20
54006;DHT22;39919;38.160;-122.260;2023-08-21T12:13:52;20.10;79.50
54006;DHT22;39919;38.160;-122.260;2023-08-21T12:16:23;20.00;80.10
54006;DHT22;39919;38.160;-122.260;2023-08-21T12:18:52;19.90;80.60
54006;DHT22;39919;38.160;-122.260;2023-08-21T12:21:24;19.90;81.50
54006;DHT22;39919;38.160;-122.260;2023-08-21T12:23:53;19.80;81.30
54006;DHT22;39919;38.160;-122.260;2023-08-21T12:26:22;19.80;80.80
54006;DHT22;39919;38.160;-122.260;2023-08-21T12:28:51;19.70;81.20
54006;DHT22;39919;38.160;-122.260;2023-08-21T12:31:22;19.70;82.00
54006;DHT22;39919;38.160;-122.260;2023-08-21T12:33:51;19.70;82.20
54006;DHT22;39919;38.160;-122.260;2023-08-21T12:36:24;19.60;82.40
54006;DHT22;39919;38.160;-122.260;2023-08-21T12:38:53;19.60;82.00
54006;DHT22;39919;38.160;-122.260;2023-08-21T12:41:22;19.60;82.10
54006;DHT22;39919;38.160;-122.260;2023-08-21T12:43:51;19.60;82.30
54006;DHT22;39919;38.160;-122.260;2023-08-21T12:46:24;19.50;82.80
54006;DHT22;39919;38.160;-122.260;2023-08-21T12:48:56;19.50;82.60
54006;DHT22;39919;38.160;-122.260;2023-08-21T12:51:26;19.50;83.30
54006;DHT22;39919;38.160;-122.260;2023-08-21T12:53:55;19.40;83.80
54006;DHT22;39919;38.160;-122.260;2023-08-21T12:56:24;19.40;83.80
54006;DHT22;39919;38.160;-122.260;2023-08-21T12:58:54;19.30;83.50
54006;DHT22;39919;38.160;-122.260;2023-08-21T13:01:25;19.30;83.50
54006;DHT22;39919;38.160;-122.260;2023-08-21T13:03:56;19.30;83.40
54006;DHT22;39919;38.160;-122.260;2023-08-21T13:06:28;19.30;83.50
54006;DHT22;39919;38.160;-122.260;2023-08-21T13:08:57;19.30;83.20
54006;DHT22;39919;38.160;-122.260;2023-08-21T13:11:27;19.20;83.00
54006;DHT22;39919;38.160;-122.260;2023-08-21T13:13:56;19.20;83.80
54006;DHT22;39919;38.160;-122.260;2023-08-21T13:16:28;19.20;83.70
54006;DHT22;39919;38.160;-122.260;2023-08-21T13:18:57;19.20;83.50
54006;DHT22;39919;38.160;-122.260;2023-08-21T13:21:26;19.20;83.80
54006;DHT22;39919;38.160;-122.260;2023-08-21T13:23:55;19.10;83.90
54006;DHT22;39919;38.160;-122.260;2023-08-21T13:26:27;19.10;84.20
54006;DHT22;39919;38.160;-122.260;2023-08-21T13:28:56;19.10;84.40
54006;DHT22;39919;38.160;-122.260;2023-08-21T13:31:27;19.10;84.40
54006;DHT22;39919;38.160;-122.260;2023-08-21T13:33:59;19.10;85.20
54006;DHT22;39919;38.160;-122.260;2023-08-21T13:36:29;19.10;85.70
54006;DHT22;39919;38.160;-122.260;2023-08-21T13:38:58;19.10;86.60
54006;DHT22;39919;38.160;-122.260;2023-08-21T13:41:27;19.10;86.90
54006;DHT22;39919;38.160;-122.260;2023-08-21T13:43:56;19.10;88.30
54006;DHT22;39919;38.160;-122.260;2023-08-21T13:46:27;19.20;88.70
54006;DHT22;39919;38.160;-122.260;2023-08-21T13:49:04;19.20;88.60
54006;DHT22;39919;38.160;-122.260;2023-08-21T13:51:36;19.20;88.70
54006;DHT22;39919;38.160;-122.260;2023-08-21T13:54:05;19.20;89.50
54006;DHT22;39919;38.160;-122.260;2023-08-21T13:56:34;19.30;89.30
54006;DHT22;39919;38.160;-122.260;2023-08-21T13:59:03;19.30;89.70
54006;DHT22;39919;38.160;-122.260;2023-08-21T14:01:36;19.30;90.20
54006;DHT22;39919;38.160;-122.260;2023-08-21T14:04:05;19.30;90.20
54006;DHT22;39919;38.160;-122.260;2023-08-21T14:06:34;19.30;90.30
54006;DHT22;39919;38.160;-122.260;2023-08-21T14:09:03;19.30;90.10
54006;DHT22;39919;38.160;-122.260;2023-08-21T14:11:33;19.30;90.10
54006;DHT22;39919;38.160;-122.260;2023-08-21T14:14:02;19.40;90.30
54006;DHT22;39919;38.160;-122.260;2023-08-21T14:16:31;19.40;89.80
54006;DHT22;39919;38.160;-122.260;2023-08-21T14:19:02;19.40;90.00
54006;DHT22;39919;38.160;-122.260;2023-08-21T14:21:37;19.40;89.70
54006;DHT22;39919;38.160;-122.260;2023-08-21T14:24:09;19.40;89.40
54006;DHT22;39919;38.160;-122.260;2023-08-21T14:26:38;19.50;89.80
54006;DHT22;39919;38.160;-122.260;2023-08-21T14:29:07;19.60;90.00
54006;DHT22;39919;38.160;-122.260;2023-08-21T14:31:37;19.60;89.50
54006;DHT22;39919;38.160;-122.260;2023-08-21T14:34:07;19.70;89.40
54006;DHT22;39919;38.160;-122.260;2023-08-21T14:36:37;19.80;89.00
54006;DHT22;39919;38.160;-122.260;2023-08-21T14:39:06;19.90;88.50
54006;DHT22;39919;38.160;-122.260;2023-08-21T14:41:41;20.00;88.30
54006;DHT22;39919;38.160;-122.260;2023-08-21T14:44:12;20.10;88.00
54006;DHT22;39919;38.160;-122.260;2023-08-21T14:46:42;20.20;87.40
54006;DHT22;39919;38.160;-122.260;2023-08-21T14:49:13;20.30;86.70
54006;DHT22;39919;38.160;-122.260;2023-08-21T14:51:43;20.40;86.10
54006;DHT22;39919;38.160;-122.260;2023-08-21T14:54:12;20.50;85.20
54006;DHT22;39919;38.160;-122.260;2023-08-21T14:56:41;20.60;85.10
54006;DHT22;39919;38.160;-122.260;2023-08-21T14:59:10;20.80;84.70
54006;DHT22;39919;38.160;-122.260;2023-08-21T15:01:41;20.90;83.90
54006;DHT22;39919;38.160;-122.260;2023-08-21T15:04:12;21.10;83.50
54006;DHT22;39919;38.160;-122.260;2023-08-21T15:06:41;21.20;82.50
54006;DHT22;39919;38.160;-122.260;2023-08-21T15:09:10;21.40;81.90
54006;DHT22;39919;38.160;-122.260;2023-08-21T15:11:40;21.50;81.30
54006;DHT22;39919;38.160;-122.260;2023-08-21T15:14:13;21.70;80.70
54006;DHT22;39919;38.160;-122.260;2023-08-21T15:16:44;21.90;80.20